Startpagina
METAR-TAF:

METAR-TAF

Vliegvelden :

Luchthaven Dakar

Dakar, Senegal

breedte: 14-44N, lengte: 017-30W, hoogte: 27 m

Actueel weer

Dit bericht is 32 minuten geleden gemaakt, om 23:00 UTC
Wind 8 kt uit het noorden
Temperatuur 21°C
Vochtigheid 88%
Druk 1013 hPa
Zicht: 8000 m
Weinig wolken op 1000 ft

METAR: GOOY 262300Z 36008KT 8000 FEW010 21/19 Q1013 NOSIG

Tijdstip: 23:32 (23:32 UTC)

Verwachting

Dit bericht is 6 uur en het 2 minuten geleden gemaakt, om 17:30 UTC
Verwachting geldig van 26 om 18 UTC tot 27 om 24 UTC
Wind 8 kt uit het noordnoordwesten
Zicht 10 km of meer
geen wolken onder 1500 m en geen cumulonimbus

TAF: GOOY 261730Z 2618/2724 34008KT CAVOK

Waarnemingen en weersverwachtingen van meer dan 4000 vliegvelden (METAR en TAF).

De beschikbare stations zijn de gele en rode punten op de kaart.

Ga met uw muis naar het station om de naam te zien.

Klik dan om waarnemingen en weersverwachtingen te zien.

kaart wijzigen: klik op de groene knoppen met een zwart kruis om in te zoomen, op de groene knop met een streepje om uit te zoomen of op de groene pijlen voor aangrenzende kaarten.


METAR-TAF: